Flight Track Log - Related Links

Times and Time Zones

All times are in EDT time to prevent confusion due to time zone crossing. See the JBU1269 flight status page for this flight to view local times or setup timezone preferences in your user account.

Time Position Orientation Groundspeed Altitude Reporting Facility
EDT Latitude Longitude Course Direction KTS MPH feet Rate Location/Type
Sun 11:01:02 PM 42.3500 -70.9833 200° South 167 192 700  Level KA90
Sun 11:02:02 PM 42.3333 -70.9333 114° Southeast 194 223 2,400 1,632 Climbing KA90
Sun 11:03:07 PM 42.3206 -70.8536 102° East 248 285 4,100 2,496 Climbing Boston Center
Sun 11:04:00 PM 42.2345 -70.6506 160° South  Level FlightAware Approximate
Sun 11:04:07 PM 42.3106 -70.7417 97° East 263 303 7,600  Level Boston Center
Sun 11:05:00 PM 42.1280 -70.6027 200° South  Level FlightAware Approximate
Sun 11:05:07 PM 42.2475 -70.6983 153° Southeast 255 293 10,500  Level Boston Center
Sun 11:06:00 PM 42.0216 -70.6559 200° South  Level FlightAware Approximate
Sun 11:06:07 PM 42.1683 -70.7089 186° South 228 262 12,700  Level Boston Center
Sun 11:07:07 PM 42.0789 -70.7169 184° South 278 320 14,700 1,850 Climbing Boston Center
Sun 11:08:07 PM 41.9853 -70.7308 186° South 317 365 16,400 2,100 Climbing Boston Center
Sun 11:09:07 PM 41.9008 -70.7917 208° Southwest 331 381 18,900 2,150 Climbing Boston Center
Sun 11:10:07 PM 41.8289 -70.8686 219° Southwest 336 387 20,700 1,400 Climbing Boston Center
Sun 11:11:07 PM 41.7508 -70.9569 220° Southwest 350 403 21,700 1,650 Climbing Boston Center
Sun 11:12:07 PM 41.6664 -71.0450 218° Southwest 374 430 24,000 1,900 Climbing Boston Center
Sun 11:13:07 PM 41.5925 -71.1300 221° Southwest 369 425 25,500 900 Climbing Boston Center
Sun 11:14:07 PM 41.5081 -71.2175 218° Southwest 377 434 25,800 600 Climbing Boston Center
Sun 11:15:07 PM 41.4214 -71.3133 220° Southwest 392 451 26,700 950 Climbing Boston Center
Sun 11:16:07 PM 41.3308 -71.4089 218° Southwest 410 472 27,700 1,050 Climbing Boston Center
Sun 11:17:07 PM 41.2419 -71.5069 220° Southwest 422 486 28,800 950 Climbing Boston Center
Sun 11:18:07 PM 41.1572 -71.6131 223° Southwest 422 486 29,600 1,000 Climbing Boston Center
Sun 11:19:07 PM 41.0811 -71.7325 230° Southwest 422 486 30,800 1,150 Climbing Boston Center
Sun 11:20:07 PM 40.9983 -71.8461 226° Southwest 427 491 31,900 1,150 Climbing Boston Center
Sun 11:21:07 PM 40.9156 -71.9567 225° Southwest 427 491 33,100 1,150 Climbing Boston Center
Sun 11:22:07 PM 40.8325 -72.0642 224° Southwest 422 486 34,200 1,050 Climbing Boston Center
Sun 11:23:07 PM 40.7536 -72.1717 226° Southwest 422 486 35,200 900 Climbing Boston Center
Sun 11:24:07 PM 40.6603 -72.2814 222° Southwest 422 486 36,000 400 Climbing Boston Center
Sun 11:25:07 PM 40.5811 -72.3881 226° Southwest 417 480 36,000  Level Boston Center
Sun 11:26:07 PM 40.4956 -72.4892 222° Southwest 412 474 36,000 -50 Level Boston Center
Sun 11:27:07 PM 40.4144 -72.5928 224° Southwest 412 474 35,900 -50 Descending Boston Center
Sun 11:28:07 PM 40.3308 -72.6958 223° Southwest 406 467 35,900 50 Level Boston Center
Sun 11:29:07 PM 40.2533 -72.8017 226° Southwest 411 473 36,000 50 Climbing Boston Center
Sun 11:30:07 PM 40.1800 -72.8992 225° Southwest 411 473 36,000  Level Boston Center
Sun 11:32:22 PM 40.0008 -73.1322 225° Southwest 419 482 36,000  Level Washington Center
Sun 11:33:22 PM 39.9194 -73.2325 223° Southwest 419 482 36,000  Level Washington Center
Sun 11:34:23 PM 39.8361 -73.3381 224° Southwest 419 482 36,000  Level Washington Center
Sun 11:35:24 PM 39.7442 -73.4433 221° Southwest 419 482 36,000  Level Washington Center
Sun 11:36:22 PM 39.6647 -73.5428 224° Southwest 411 473 36,000  Level Washington Center
Sun 11:37:22 PM 39.5831 -73.6447 224° Southwest 411 473 36,000  Level Washington Center
Sun 11:38:22 PM 39.5014 -73.7467 224° Southwest 411 473 36,000  Level Washington Center
Sun 11:39:22 PM 39.4172 -73.8456 222° Southwest 411 473 36,000  Level Washington Center
Sun 11:40:22 PM 39.3333 -73.9494 224° Southwest 411 473 36,000  Level Washington Center
Sun 11:41:23 PM 39.2533 -74.0478 224° Southwest 411 473 36,000  Level Washington Center
Sun 11:42:24 PM 39.1567 -74.1356 215° Southwest 416 479 36,000 -51 Level Washington Center
Sun 11:43:21 PM 39.0617 -74.2122 212° Southwest 416 479 35,900  Descending Washington Center
Sun 11:44:22 PM 38.9686 -74.2942 214° Southwest 416 479 36,000 49 Climbing Washington Center
Sun 11:45:24 PM 38.8903 -74.3594 213° Southwest 416 479 36,000  Level Washington Center
Sun 11:46:24 PM 38.7847 -74.4439 212° Southwest 416 479 36,000  Level Washington Center
Sun 11:47:22 PM 38.6875 -74.5278 214° Southwest 416 479 36,000  Level Washington Center
Sun 11:48:22 PM 38.5903 -74.6064 212° Southwest 411 473 36,000  Level Washington Center
Sun 11:49:24 PM 38.4969 -74.6844 213° Southwest 411 473 36,000 -49 Level Washington Center
Sun 11:50:24 PM 38.3994 -74.7625 212° Southwest 411 473 35,900  Descending Washington Center
Sun 11:51:22 PM 38.2981 -74.8589 217° Southwest 411 473 36,000 50 Climbing Washington Center
Sun 11:52:23 PM 38.1983 -74.9339 211° Southwest 411 473 36,000  Level Washington Center
Sun 11:53:21 PM 38.1028 -75.0111 212° Southwest 417 480 36,000  Level Washington Center
Sun 11:54:21 PM 38.0053 -75.0883 212° Southwest 417 480 36,000  Level Washington Center
Sun 11:55:23 PM 37.9094 -75.1681 213° Southwest 417 480 36,000  Level Washington Center
Sun 11:56:23 PM 37.8117 -75.2447 212° Southwest 417 480 36,000 -50 Level Washington Center
Sun 11:57:22 PM 37.7139 -75.3214 212° Southwest 417 480 35,900  Descending Washington Center
Sun 11:58:24 PM 37.6161 -75.4006 213° Southwest 417 480 36,000 49 Climbing Washington Center
Sun 11:59:24 PM 37.5181 -75.4792 212° Southwest 417 480 36,000  Level Washington Center
Mon 12:00:22 AM 37.4222 -75.5553 212° Southwest 417 480 36,000  Level Washington Center
Mon 12:01:22 AM 37.3242 -75.6336 212° Southwest 417 480 36,000 -50 Level Washington Center
Mon 12:02:22 AM 37.2261 -75.7092 212° Southwest 417 480 35,900  Descending Washington Center
Mon 12:03:22 AM 37.1281 -75.7872 212° Southwest 417 480 36,000 50 Climbing Washington Center
Mon 12:04:23 AM 37.0319 -75.8625 212° Southwest 417 480 36,000  Level Washington Center
Mon 12:05:22 AM 36.9358 -75.9297 209° Southwest 428 493 36,000  Level Washington Center
Mon 12:06:21 AM 36.8397 -76.0072 213° Southwest 428 493 36,000  Level Washington Center
Mon 12:07:21 AM 36.7392 -76.0844 212° Southwest 428 493 36,000  Level Washington Center
Mon 12:08:24 AM 36.6386 -76.1667 213° Southwest 433 498 36,000  Level Washington Center
Mon 12:09:22 AM 36.5403 -76.2408 211° Southwest 433 498 36,000  Level Washington Center
Mon 12:10:22 AM 36.4417 -76.3150 211° Southwest 428 493 36,000  Level Washington Center
Mon 12:11:24 AM 36.3453 -76.3889 212° Southwest 428 493 36,000  Level Washington Center
Mon 12:12:23 AM 36.2447 -76.4650 211° Southwest 428 493 36,000  Level Washington Center
Mon 12:13:23 AM 36.1461 -76.5411 212° Southwest 428 493 36,000  Level Washington Center
Mon 12:14:24 AM 36.0453 -76.6169 211° Southwest 428 493 36,000  Level Washington Center
Mon 12:15:24 AM 35.9486 -76.6928 212° Southwest 428 493 36,000  Level Washington Center
Mon 12:16:23 AM 35.8478 -76.7683 211° Southwest 428 493 36,000 -50 Level Washington Center
Mon 12:17:24 AM 35.7489 -76.8383 210° Southwest 428 493 35,900  Descending Washington Center
Mon 12:18:23 AM 35.6500 -76.9136 212° Southwest 428 493 36,000 50 Climbing Washington Center
Mon 12:19:23 AM 35.5447 -76.9961 213° Southwest 428 493 36,000  Level Washington Center
Mon 12:20:22 AM 35.4439 -77.0708 211° Southwest 422 486 36,000  Level Washington Center
Mon 12:21:22 AM 35.3469 -77.1453 212° Southwest 422 486 36,000  Level Washington Center
Mon 12:22:22 AM 35.2417 -77.2197 210° Southwest 428 493 36,000  Level Washington Center
Mon 12:23:22 AM 35.1467 -77.2914 212° Southwest 428 493 36,000  Level Washington Center
Mon 12:24:23 AM 35.0453 -77.3678 212° Southwest 428 493 36,000  Level Washington Center
Mon 12:25:23 AM 34.9483 -77.4392 211° Southwest 428 493 36,000  Level Washington Center
Mon 12:26:24 AM 34.8472 -77.5078 209° Southwest 428 493 36,000  Level Washington Center
Mon 12:27:22 AM 34.7400 -77.5558 200° South 423 487 36,000  Level Washington Center
Mon 12:28:24 AM 34.6286 -77.5961 197° South 418 481 36,000 -50 Level Washington Center
Mon 12:29:22 AM 34.5153 -77.6336 195° South 418 481 35,900 -51 Descending Washington Center
Mon 12:30:21 AM 34.4042 -77.6736 197° South 423 487 35,900 50 Level Washington Center
Mon 12:31:22 AM 34.2928 -77.7111 196° South 423 487 36,000 99 Climbing Washington Center
Mon 12:32:22 AM 34.1858 -77.7486 196° South 423 487 36,100  Climbing Washington Center
Mon 12:33:51 AM 34.0011 -77.8078 195° South 425 489 36,000 -40 Descending Jacksonville Center
Mon 12:34:51 AM 33.8881 -77.8519 198° South 431 496 36,000  Level Jacksonville Center
Mon 12:35:51 AM 33.7747 -77.8883 195° South 431 496 36,000  Level Jacksonville Center
Mon 12:36:51 AM 33.6572 -77.9275 196° South 431 496 36,000  Level Jacksonville Center
Mon 12:37:51 AM 33.5422 -77.9686 197° South 431 496 36,000  Level Jacksonville Center
Mon 12:38:51 AM 33.4267 -78.0050 195° South 431 496 36,000 -50 Level Jacksonville Center
Mon 12:39:51 AM 33.3114 -78.0461 197° South 431 496 35,900  Descending Jacksonville Center
Mon 12:40:51 AM 33.2000 -78.0819 195° South 431 496 36,000 50 Climbing Jacksonville Center
Mon 12:41:51 AM 33.0825 -78.1206 195° South 431 496 36,000 -50 Level Jacksonville Center
Mon 12:42:51 AM 32.9714 -78.1586 196° South 431 496 35,900 -50 Descending Jacksonville Center
Mon 12:43:51 AM 32.8561 -78.1992 196° South 431 496 35,900 50 Level Jacksonville Center
Mon 12:44:51 AM 32.7406 -78.2375 196° South 431 496 36,000 50 Climbing Jacksonville Center
Mon 12:45:51 AM 32.6250 -78.2753 195° South 431 496 36,000  Level Jacksonville Center
Mon 12:46:51 AM 32.5117 -78.3108 195° South 431 496 36,000 -50 Level Jacksonville Center
Mon 12:47:51 AM 32.3983 -78.3533 198° South 431 496 35,900  Descending Jacksonville Center
Mon 12:48:51 AM 32.2808 -78.3936 196° South 431 496 36,000 50 Climbing Jacksonville Center
Mon 12:49:51 AM 32.1694 -78.4308 196° South 431 496 36,000  Level Jacksonville Center
Mon 12:50:51 AM 32.0558 -78.4683 196° South 431 496 36,000  Level Jacksonville Center
Mon 12:51:51 AM 31.9422 -78.5056 196° South 431 496 36,000 -50 Level Jacksonville Center
Mon 12:52:51 AM 31.8308 -78.5428 196° South 431 496 35,900 -50 Descending Jacksonville Center
Mon 12:53:51 AM 31.7194 -78.5797 196° South 431 496 35,900  Level Jacksonville Center
Mon 12:54:51 AM 31.6078 -78.6142 195° South 431 496 35,900 50 Level Jacksonville Center
Mon 12:55:51 AM 31.4944 -78.6533 196° South 431 496 36,000 50 Climbing Jacksonville Center
Mon 12:56:51 AM 31.3786 -78.6903 195° South 439 505 36,000  Level Jacksonville Center
Mon 12:57:51 AM 31.2672 -78.7244 195° South 428 493 36,000 -50 Level Jacksonville Center
Mon 12:58:51 AM 31.1536 -78.7611 195° South 428 493 35,900  Descending Jacksonville Center
Mon 12:59:51 AM 31.0442 -78.7975 196° South 427 491 36,000 50 Climbing Jacksonville Center
Mon 01:00:51 AM 30.9386 -78.8311 195° South 427 491 36,000  Level Jacksonville Center
Mon 01:01:51 AM 30.8231 -78.8697 196° South 432 497 36,000 -50 Level Jacksonville Center
Mon 01:02:51 AM 30.7094 -78.9061 195° South 427 491 35,900  Descending Jacksonville Center
Mon 01:03:51 AM 30.5936 -78.9422 195° South 428 493 36,000 50 Climbing Jacksonville Center
Mon 01:04:51 AM 30.4778 -78.9761 194° South 433 498 36,000  Level Jacksonville Center
Mon 01:05:51 AM 30.3619 -79.0119 195° South 436 502 36,000  Level Jacksonville Center
Mon 01:07:19 AM 30.2064 -79.0528 193° South 428 493 36,000  Level Miami Center
Mon 01:08:19 AM 30.0722 -79.0869 192° South 430 495 36,000  Level Miami Center
Mon 01:09:18 AM 29.9656 -79.1456 205° Southwest 432 497 36,000  Level Miami Center
Mon 01:10:19 AM 29.8689 -79.2247 215° Southwest 428 493 36,000  Level Miami Center
Mon 01:11:20 AM 29.7719 -79.3031 215° Southwest 426 490 36,000  Level Miami Center
Mon 01:12:21 AM 29.6756 -79.3819 215° Southwest 427 491 36,000  Level Miami Center
Mon 01:13:21 AM 29.5856 -79.4719 221° Southwest 429 494 36,000  Level Miami Center
Mon 01:14:27 AM 29.4972 -79.5636 222° Southwest 429 494 36,000  Level Miami Center
Mon 01:15:29 AM 29.4022 -79.6475 218° Southwest 430 495 36,000  Level Miami Center
Mon 01:16:28 AM 29.3011 -79.7222 213° Southwest 432 497 36,000  Level Miami Center
Mon 01:17:28 AM 29.1903 -79.7728 202° Southwest 428 493 36,000  Level Miami Center
Mon 01:18:29 AM 29.0725 -79.8069 194° South 439 505 36,000  Level Miami Center
Mon 01:19:28 AM 28.9319 -79.8447 193° South 433 498 36,000  Level Miami Center
Mon 01:20:31 AM 28.8128 -79.8736 192° South 436 502 36,000 -300 Level Miami Center
Mon 01:21:28 AM 28.6939 -79.8956 189° South 431 496 35,400 -1,109 Descending Miami Center
Mon 01:22:30 AM 28.5714 -79.9053 184° South 438 504 33,800 -1,512 Descending Miami Center
Mon 01:23:31 AM 28.4528 -79.9153 184° South 445 512 32,300 -1,438 Descending Miami Center
Mon 01:24:31 AM 28.3225 -79.9289 185° South 449 517 30,900 -1,220 Descending Miami Center
Mon 01:25:29 AM 28.2025 -79.9394 184° South 448 516 29,900 -1,017 Descending Miami Center
Mon 01:26:29 AM 28.0736 -79.9525 185° South 443 510 28,900 -984 Descending Miami Center
Mon 01:27:31 AM 27.9572 -79.9639 185° South 437 503 27,900 -992 Descending Miami Center
Mon 01:28:30 AM 27.8319 -79.9772 185° South 433 498 26,900 -900 Descending Miami Center
Mon 01:29:31 AM 27.7364 -79.9858 185° South 430 495 26,100 -934 Descending Miami Center
Mon 01:30:32 AM 27.5956 -79.9997 185° South 422 486 25,000 -1,289 Descending Miami Center
Mon 01:31:32 AM 27.4828 -80.0181 188° South 408 470 23,500 -1,475 Descending Miami Center
Mon 01:32:34 AM 27.3944 -80.0358 190° South 402 463 22,000 -1,950 Descending Miami Center
Mon 01:33:32 AM 27.2650 -80.0597 189° South 391 450 19,600 -2,622 Descending Miami Center
Mon 01:34:33 AM 27.1561 -80.0792 189° South 386 444 16,800 -2,410 Descending Miami Center
Mon 01:35:34 AM 27.0542 -80.0967 189° South 380 437 14,700 -1,686 Descending Miami Center
Mon 01:36:34 AM 26.9603 -80.1117 188° South 357 411 13,400 -1,322 Descending Miami Center
Mon 01:37:32 AM 26.8694 -80.1283 189° South 322 371 12,100 -1,261 Descending Miami Center
Mon 01:38:33 AM 26.7836 -80.1414 188° South 312 359 10,900 -1,190 Descending Miami Center
Mon 01:39:33 AM 26.7028 -80.1558 189° South 295 339 9,700 -1,150 Descending Miami Center
Mon 01:40:33 AM 26.6289 -80.1694 189° South 270 311 8,600 -836 Descending Miami Center
Mon 01:41:35 AM 26.5561 -80.1811 188° South 266 306 8,000 -300 Descending Miami Center
Mon 01:42:33 AM 26.4817 -80.1928 188° South 269 310 8,000  Level Miami Center
Mon 01:44:00 AM 26.3166 -80.1766 119° Southeast  Level Estimated
Mon 01:51:00 AM 26.0726 -80.1527 268° West  Level Estimated
Mon 01:52:00 AM 26.0726 -80.1527 277° West  Level Estimated
Mon 01:53:00 AM 26.0726 -80.1527 277° West  Level Estimated
Mon 01:54:00 AM 26.0726 -80.1527 97° East  Level Estimated
Mon 01:55:00 AM 26.0726 -80.1527 99° East  Level Estimated
Mon 01:56:00 AM 26.0726 -80.1527 103° East  Level Estimated
Mon 01:57:00 AM 26.0726 -80.1527 90° East  Level Estimated
Mon 01:58:00 AM 26.0671 -80.1522 103° East  Level FlightAware Approximate
Mon 01:59:00 AM 26.0667 -80.1500 103° East  Level FlightAware Approximate
Mon 02:00:00 AM 26.0726 -80.1527 103° East  Level Estimated
Mon 02:01:00 AM 26.0667 -80.1500 103° East  Level FlightAware Approximate
Mon 02:02:00 AM 26.0726 -80.1527 103° East  Level Estimated
Mon 02:03:00 AM 26.0667 -80.1500 103° East  Level FlightAware Approximate
Mon 02:04:00 AM 26.0726 -80.1527 103° East  Level Estimated
Mon 02:05:00 AM 26.0667 -80.1500 103° East  Level FlightAware Approximate
Mon 02:06:00 AM 26.0726 -80.1527 103° East  Level Estimated
Mon 02:07:00 AM 26.0667 -80.1500 103° East  Level FlightAware Approximate
Mon 02:08:00 AM 26.0726 -80.1527 103° East  Level Estimated
Mon 02:09:00 AM 26.0667 -80.1500 103° East  Level FlightAware Approximate
Mon 02:10:00 AM 26.0726 -80.1527 103° East  Level Estimated
Mon 02:11:00 AM 26.0667 -80.1500 103° East  Level FlightAware Approximate
Mon 02:12:00 AM 26.0726 -80.1527 103° East  Level Estimated
Mon 02:13:00 AM 26.0667 -80.1500 103° East  Level FlightAware Approximate
Mon 02:14:00 AM 26.0726 -80.1527 103° East  Level Estimated
Mon 02:15:00 AM 26.0667 -80.1500 103° East  Level FlightAware Approximate
Mon 02:16:00 AM 26.0726 -80.1527 103° East  Level Estimated
Mon 02:17:00 AM 26.0667 -80.1500 103° East  Level FlightAware Approximate
Mon 02:18:00 AM 26.0726 -80.1527 103° East  Level Estimated
Mon 02:19:00 AM 26.0667 -80.1500 103° East  Level FlightAware Approximate
Mon 02:20:00 AM 26.0726 -80.1527 103° East  Level Estimated
Mon 02:21:00 AM 26.0667 -80.1500 103° East  Level FlightAware Approximate
Mon 02:22:00 AM 26.0726 -80.1527 103° East  Level Estimated

Login

Don't have an account? Register now (free) for customized features, flight alerts, and more!